GMFO/OUD METAR and TAF weather

Enter ICAO airport designator
Station Type Date Time Source
GMFO METAR 2018/01/16 09:00 UTC NOAA

GMFO 160900Z VRB02KT CAVOK 06/06 Q1031 NOSIG


Station Type Date Time Source
GMFO Decoded METAR 2018/01/16 09:00 UTC NOAA

Oujda, Morocco (GMFO) 34-47N 001-56W 470M
Jan 16, 2018 - 04:00 AM EST / 2018.01.16 0900 UTC
Wind: Variable at 2 MPH (2 KT):0
Visibility: greater than 7 mile(s):0
Temperature: 42 F (6 C)
Dew Point: 42 F (6 C)
Relative Humidity: 100%
Pressure (altimeter): 30.45 in. Hg (1031 hPa)
ob: GMFO 160900Z VRB02KT CAVOK 06/06 Q1031 NOSIG
cycle: 9

Station Type Date Time Source
GMFO TAF 2018/01/16 06:18 UTC NOAA

TAF GMFO 160500Z 1606/1712 20007KT 9999 FEW020
BECMG 1614/1618 34012KT 9999 FEW026


Example: see airport list